createdAt,value
2017-04-04T00:00:07.820Z,10.46
2017-04-04T00:01:06.391Z,10.46
2017-04-04T00:02:04.964Z,10.36
2017-04-04T00:03:03.458Z,10.36
2017-04-04T00:04:01.987Z,10.43
2017-04-04T00:05:00.532Z,10.32
2017-04-04T00:05:59.195Z,10.43
2017-04-04T00:06:57.804Z,10.29
2017-04-04T00:07:56.411Z,10.21
2017-04-04T00:08:55.037Z,10.30
2017-04-04T00:09:53.623Z,10.28
2017-04-04T00:10:52.144Z,10.24
2017-04-04T00:11:50.656Z,10.37
2017-04-04T00:12:49.180Z,10.41
2017-04-04T00:13:47.799Z,10.50
2017-04-04T00:14:46.419Z,10.51
2017-04-04T00:15:44.948Z,10.39
2017-04-04T00:16:43.468Z,10.33
2017-04-04T00:17:42.007Z,10.30
2017-04-04T00:18:40.554Z,10.21
2017-04-04T00:19:39.068Z,10.36
2017-04-04T00:20:37.571Z,10.45
2017-04-04T00:21:36.185Z,10.40
2017-04-04T00:22:34.767Z,10.28
2017-04-04T00:23:33.332Z,10.31
2017-04-04T00:24:31.847Z,10.21
2017-04-04T00:25:30.511Z,10.26
2017-04-04T00:26:29.012Z,10.22
2017-04-04T00:27:27.503Z,10.17
2017-04-04T00:28:26.058Z,10.15
2017-04-04T00:29:24.683Z,10.24
2017-04-04T00:30:23.352Z,10.15
2017-04-04T00:31:22.001Z,10.27
2017-04-04T00:32:20.627Z,10.22
2017-04-04T00:33:19.178Z,10.10
2017-04-04T00:34:17.706Z,10.15
2017-04-04T00:35:16.271Z,10.17
2017-04-04T00:36:14.847Z,10.19
2017-04-04T00:37:13.523Z,10.18
2017-04-04T00:38:12.044Z,10.17
2017-04-04T00:39:10.631Z,10.23
2017-04-04T00:40:09.220Z,10.10
2017-04-04T00:41:07.735Z,9.97
2017-04-04T00:42:06.247Z,9.88
2017-04-04T00:43:04.778Z,9.92
2017-04-04T00:44:03.356Z,9.78
2017-04-04T00:45:02.022Z,9.86
2017-04-04T00:46:00.579Z,10.06
2017-04-04T00:46:59.115Z,9.87
2017-04-04T00:47:57.608Z,9.97
2017-04-04T00:48:56.126Z,9.85
2017-04-04T00:49:54.778Z,9.82
2017-04-04T00:50:53.273Z,9.86
2017-04-04T00:51:51.779Z,9.83
2017-04-04T00:52:50.300Z,9.77
2017-04-04T00:53:48.851Z,9.69
2017-04-04T00:54:47.471Z,9.57
2017-04-04T00:55:46.080Z,9.53
2017-04-04T00:56:44.759Z,9.57
2017-04-04T00:57:43.443Z,9.39
2017-04-04T00:58:42.087Z,9.61
2017-04-04T00:59:40.570Z,9.53
2017-04-04T01:00:39.163Z,9.62
2017-04-04T01:01:37.704Z,9.70
2017-04-04T01:02:36.183Z,9.65
2017-04-04T01:03:34.723Z,9.54
2017-04-04T01:04:33.264Z,9.52
2017-04-04T01:05:31.760Z,9.50
2017-04-04T01:06:30.276Z,9.51
2017-04-04T01:07:28.800Z,9.60
2017-04-04T01:08:27.345Z,9.46
2017-04-04T01:09:26.030Z,9.43
2017-04-04T01:10:24.706Z,9.42
2017-04-04T01:11:23.278Z,9.48
2017-04-04T01:12:21.835Z,9.49
2017-04-04T01:13:20.426Z,9.57
2017-04-04T01:14:18.914Z,9.49
2017-04-04T01:15:17.444Z,9.41
2017-04-04T01:16:15.963Z,9.50
2017-04-04T01:17:14.531Z,9.52
2017-04-04T01:18:13.064Z,9.50
2017-04-04T01:19:11.554Z,9.50
2017-04-04T01:20:10.088Z,9.29
2017-04-04T01:21:08.614Z,9.35
2017-04-04T01:22:07.176Z,9.20
2017-04-04T01:23:05.683Z,9.28
2017-04-04T01:24:04.235Z,9.37
2017-04-04T01:25:02.711Z,9.54
2017-04-04T01:26:01.254Z,9.55
2017-04-04T01:26:59.819Z,9.56
2017-04-04T01:27:58.356Z,9.43
2017-04-04T01:28:56.871Z,9.34
2017-04-04T01:29:55.459Z,9.31
2017-04-04T01:30:53.988Z,9.43
2017-04-04T01:31:52.563Z,9.48
2017-04-04T01:32:51.063Z,9.57
2017-04-04T01:33:49.546Z,9.35
2017-04-04T01:34:48.087Z,9.43
2017-04-04T01:35:46.679Z,9.32
2017-04-04T01:36:45.339Z,9.46
2017-04-04T01:37:43.955Z,9.30
2017-04-04T01:38:42.584Z,9.31
2017-04-04T01:39:41.172Z,9.46
2017-04-04T01:40:39.835Z,9.32
2017-04-04T01:41:38.331Z,9.30
2017-04-04T01:42:36.875Z,9.33
2017-04-04T01:43:35.546Z,9.31
2017-04-04T01:44:34.100Z,9.14
2017-04-04T01:45:32.815Z,9.20
2017-04-04T01:46:31.318Z,9.07
2017-04-04T01:47:29.818Z,9.03
2017-04-04T01:48:28.315Z,9.08
2017-04-04T01:49:26.803Z,9.25
2017-04-04T01:50:25.363Z,9.29
2017-04-04T01:51:23.958Z,9.24
2017-04-04T01:52:22.470Z,9.42
2017-04-04T01:53:20.981Z,9.45
2017-04-04T01:54:19.647Z,9.31
2017-04-04T01:55:18.135Z,9.28
2017-04-04T01:56:16.727Z,9.29
2017-04-04T01:57:15.243Z,9.15
2017-04-04T01:58:13.767Z,9.15
2017-04-04T01:59:12.270Z,9.16
2017-04-04T02:00:10.890Z,9.12
2017-04-04T02:01:09.435Z,9.31
2017-04-04T02:02:07.934Z,9.20
2017-04-04T02:03:06.439Z,9.03
2017-04-04T02:04:04.991Z,8.99
2017-04-04T02:05:03.514Z,8.97
2017-04-04T02:06:02.028Z,8.94
2017-04-04T02:07:00.588Z,9.02
2017-04-04T02:07:59.067Z,9.05
2017-04-04T02:08:57.583Z,9.00
2017-04-04T02:09:56.143Z,9.00
2017-04-04T02:10:54.780Z,9.15
2017-04-04T02:11:53.563Z,9.15
2017-04-04T02:12:52.155Z,9.20
2017-04-04T02:13:50.691Z,9.12
2017-04-04T02:14:49.188Z,9.14
2017-04-04T02:15:47.682Z,9.05
2017-04-04T02:16:46.208Z,8.92
2017-04-04T02:17:44.693Z,8.84
2017-04-04T02:18:43.254Z,8.82
2017-04-04T02:19:41.827Z,9.00
2017-04-04T02:20:40.411Z,8.93
2017-04-04T02:21:38.900Z,8.86
2017-04-04T02:22:37.550Z,8.90
2017-04-04T02:23:36.074Z,8.95
2017-04-04T02:24:34.569Z,8.90
2017-04-04T02:25:33.143Z,8.83
2017-04-04T02:26:31.636Z,8.89
2017-04-04T02:27:30.119Z,9.08
2017-04-04T02:28:28.632Z,9.06
2017-04-04T02:29:27.299Z,9.21
2017-04-04T02:30:25.999Z,8.88
2017-04-04T02:31:24.619Z,8.96
2017-04-04T02:32:23.204Z,8.95
2017-04-04T02:33:21.787Z,8.81
2017-04-04T02:34:20.450Z,8.82
2017-04-04T02:35:19.128Z,8.83
2017-04-04T02:36:17.640Z,8.82
2017-04-04T02:37:16.262Z,8.85
2017-04-04T02:38:14.927Z,8.95
2017-04-04T02:39:13.455Z,8.98
2017-04-04T02:40:11.970Z,8.97
2017-04-04T02:41:10.480Z,8.93
2017-04-04T02:42:09.043Z,8.87
2017-04-04T02:43:07.557Z,8.76
2017-04-04T02:44:06.044Z,8.76
2017-04-04T02:45:04.629Z,8.68
2017-04-04T02:46:03.172Z,8.70
2017-04-04T02:47:01.739Z,8.65
2017-04-04T02:48:00.255Z,8.70
2017-04-04T02:48:58.803Z,8.66
2017-04-04T02:49:57.347Z,8.68
2017-04-04T02:50:55.922Z,8.68
2017-04-04T02:51:54.527Z,8.85
2017-04-04T02:52:53.030Z,8.86
2017-04-04T02:53:51.536Z,9.00
2017-04-04T02:54:50.082Z,8.86
2017-04-04T02:55:48.781Z,8.74
2017-04-04T02:56:47.355Z,8.89
2017-04-04T02:57:45.933Z,8.86
2017-04-04T02:58:44.492Z,8.68
2017-04-04T02:59:43.002Z,8.72
2017-04-04T03:00:41.567Z,8.58
2017-04-04T03:01:40.079Z,8.70
2017-04-04T03:02:38.575Z,8.58
2017-04-04T03:03:37.083Z,8.47
2017-04-04T03:04:35.595Z,8.44
2017-04-04T03:05:34.256Z,8.37
2017-04-04T03:06:32.824Z,8.51
2017-04-04T03:07:31.383Z,8.58
2017-04-04T03:08:29.901Z,8.71
2017-04-04T03:09:28.383Z,8.65
2017-04-04T03:10:26.927Z,8.66
2017-04-04T03:11:25.475Z,8.64
2017-04-04T03:12:23.963Z,8.59
2017-04-04T03:13:22.493Z,8.60
2017-04-04T03:14:21.063Z,8.69
2017-04-04T03:15:19.571Z,8.50
2017-04-04T03:16:18.075Z,8.53
2017-04-04T03:17:16.568Z,8.36
2017-04-04T03:18:15.143Z,8.38
2017-04-04T03:19:13.643Z,8.37
2017-04-04T03:20:12.140Z,8.63
2017-04-04T03:21:10.718Z,8.61
2017-04-04T03:22:09.239Z,8.67
2017-04-04T03:23:07.881Z,8.56
2017-04-04T03:24:06.555Z,8.55
2017-04-04T03:25:05.111Z,8.49
2017-04-04T03:26:03.635Z,8.45
2017-04-04T03:27:02.187Z,8.46
2017-04-04T03:28:00.719Z,8.45
2017-04-04T03:28:59.231Z,8.28
2017-04-04T03:29:57.799Z,8.29
2017-04-04T03:30:56.427Z,8.40
2017-04-04T03:31:54.939Z,8.38
2017-04-04T03:32:53.442Z,8.39
2017-04-04T03:33:52.029Z,8.48
2017-04-04T03:34:50.609Z,8.44
2017-04-04T03:35:49.264Z,8.45
2017-04-04T03:36:47.911Z,8.52
2017-04-04T03:37:46.411Z,8.49
2017-04-04T03:38:44.984Z,8.46
2017-04-04T03:39:43.578Z,8.40
2017-04-04T03:40:42.210Z,8.35
2017-04-04T03:41:40.829Z,8.44
2017-04-04T03:42:39.359Z,8.61
2017-04-04T03:43:37.919Z,8.63
2017-04-04T03:44:36.470Z,8.54
2017-04-04T03:45:34.980Z,8.39
2017-04-04T03:46:33.467Z,8.25
2017-04-04T03:47:32.011Z,8.23
2017-04-04T03:48:30.635Z,8.31
2017-04-04T03:49:29.268Z,8.26
2017-04-04T03:50:27.875Z,8.27
2017-04-04T03:51:26.499Z,8.13
2017-04-04T03:52:25.203Z,8.14
2017-04-04T03:53:23.723Z,8.08
2017-04-04T03:54:22.300Z,8.07
2017-04-04T03:55:20.900Z,8.10
2017-04-04T03:56:19.418Z,8.15
2017-04-04T03:57:17.910Z,8.18
2017-04-04T03:58:16.400Z,8.19
2017-04-04T03:59:14.906Z,8.18
2017-04-04T04:00:13.420Z,8.23
2017-04-04T04:01:12.010Z,8.37
2017-04-04T04:02:10.688Z,8.33
2017-04-04T04:03:09.276Z,8.20
2017-04-04T04:04:07.922Z,8.02
2017-04-04T04:05:06.599Z,7.95
2017-04-04T04:06:05.194Z,7.98
2017-04-04T04:07:03.843Z,7.90
2017-04-04T04:08:02.353Z,7.82
2017-04-04T04:09:00.858Z,7.83
2017-04-04T04:09:59.366Z,7.84
2017-04-04T04:10:57.951Z,7.90
2017-04-04T04:11:56.542Z,7.93
2017-04-04T04:12:55.040Z,8.01
2017-04-04T04:13:53.547Z,8.01
2017-04-04T04:14:52.082Z,8.06
2017-04-04T04:15:50.610Z,7.91
2017-04-04T04:16:49.131Z,7.98
2017-04-04T04:17:47.690Z,7.95
2017-04-04T04:18:46.327Z,7.84
2017-04-04T04:19:44.840Z,7.88
2017-04-04T04:20:43.347Z,7.87
2017-04-04T04:21:41.927Z,7.98
2017-04-04T04:22:40.535Z,8.21
2017-04-04T04:23:39.034Z,8.10
2017-04-04T04:24:37.582Z,7.99
2017-04-04T04:25:36.129Z,7.99
2017-04-04T04:26:35.099Z,8.03
2017-04-04T04:27:33.615Z,8.05
2017-04-04T04:28:32.139Z,7.96
2017-04-04T04:29:30.649Z,8.00
2017-04-04T04:30:29.445Z,7.79
2017-04-04T04:31:27.950Z,7.93
2017-04-04T04:32:26.471Z,7.85
2017-04-04T04:33:25.274Z,7.75
2017-04-04T04:34:23.808Z,7.85
2017-04-04T04:35:22.462Z,7.87
2017-04-04T04:36:21.054Z,7.74
2017-04-04T04:37:19.699Z,7.66
2017-04-04T04:38:18.270Z,7.65
2017-04-04T04:39:16.778Z,7.69
2017-04-04T04:40:15.291Z,7.73
2017-04-04T04:41:13.871Z,7.73
2017-04-04T04:42:12.372Z,7.81
2017-04-04T04:43:10.867Z,7.93
2017-04-04T04:44:09.358Z,7.95
2017-04-04T04:45:07.867Z,7.83
2017-04-04T04:46:06.478Z,7.83
2017-04-04T04:47:05.039Z,7.87
2017-04-04T04:48:03.663Z,7.78
2017-04-04T04:49:02.164Z,7.92
2017-04-04T04:50:00.666Z,7.88
2017-04-04T04:50:59.207Z,7.96
2017-04-04T04:51:57.767Z,7.75
2017-04-04T04:52:56.318Z,7.70
2017-04-04T04:53:54.859Z,7.72
2017-04-04T04:54:53.383Z,7.62
2017-04-04T04:55:51.864Z,7.49
2017-04-04T04:56:50.355Z,7.52
2017-04-04T04:57:48.879Z,7.63
2017-04-04T04:58:47.391Z,7.53
2017-04-04T04:59:45.895Z,7.62
2017-04-04T05:00:44.456Z,7.57
2017-04-04T05:01:43.004Z,7.59
2017-04-04T05:02:41.507Z,7.53
2017-04-04T05:03:40.034Z,7.43
2017-04-04T05:04:38.552Z,7.66
2017-04-04T05:05:37.480Z,7.49
2017-04-04T05:06:36.036Z,7.40
2017-04-04T05:07:35.091Z,7.28
2017-04-04T05:08:33.632Z,7.34
2017-04-04T05:09:32.170Z,7.33
2017-04-04T05:10:30.901Z,7.21
2017-04-04T05:11:29.486Z,7.25
2017-04-04T05:12:28.015Z,7.35
2017-04-04T05:13:26.606Z,7.21
2017-04-04T05:14:25.104Z,7.24
2017-04-04T05:15:24.079Z,7.32
2017-04-04T05:16:22.595Z,7.52
2017-04-04T05:17:21.159Z,7.65
2017-04-04T05:18:19.758Z,7.66
2017-04-04T05:19:18.389Z,7.66
2017-04-04T05:20:17.254Z,7.76
2017-04-04T05:21:15.883Z,7.93
2017-04-04T05:22:14.495Z,8.04
2017-04-04T05:23:13.275Z,8.02
2017-04-04T05:24:11.820Z,8.04
2017-04-04T05:25:10.567Z,8.05
2017-04-04T05:26:09.206Z,8.01
2017-04-04T05:27:07.796Z,8.05
2017-04-04T05:28:06.307Z,8.08
2017-04-04T05:29:04.800Z,8.01
2017-04-04T05:30:03.307Z,7.95
2017-04-04T05:31:01.920Z,7.92
2017-04-04T05:32:00.593Z,7.87
2017-04-04T05:32:59.150Z,7.80
2017-04-04T05:33:57.638Z,7.70
2017-04-04T05:34:56.158Z,7.64
2017-04-04T05:35:54.715Z,7.59
2017-04-04T05:36:53.243Z,7.70
2017-04-04T05:37:51.797Z,7.85
2017-04-04T05:38:50.422Z,7.85
2017-04-04T05:39:48.995Z,7.60
2017-04-04T05:40:47.667Z,7.43
2017-04-04T05:41:46.197Z,7.52
2017-04-04T05:42:44.720Z,7.63
2017-04-04T05:43:43.322Z,7.67
2017-04-04T05:44:41.903Z,7.67
2017-04-04T05:45:40.390Z,7.59
2017-04-04T05:46:38.894Z,7.64
2017-04-04T05:47:37.475Z,7.57
2017-04-04T05:48:36.011Z,7.59
2017-04-04T05:49:34.522Z,7.49
2017-04-04T05:50:33.123Z,7.49
2017-04-04T05:51:31.660Z,7.69
2017-04-04T05:52:30.189Z,7.74
2017-04-04T05:53:28.706Z,7.65
2017-04-04T05:54:27.229Z,7.74
2017-04-04T05:55:25.772Z,7.75
2017-04-04T05:56:24.329Z,7.82
2017-04-04T05:57:22.897Z,7.76
2017-04-04T05:58:21.495Z,7.81
2017-04-04T05:59:20.165Z,7.95
2017-04-04T06:00:18.720Z,8.06
2017-04-04T06:01:17.415Z,8.21
2017-04-04T06:02:16.056Z,8.33
2017-04-04T06:03:14.681Z,8.43
2017-04-04T06:04:13.231Z,8.52
2017-04-04T06:05:11.817Z,8.56
2017-04-04T06:06:10.468Z,8.61
2017-04-04T06:07:09.096Z,8.68
2017-04-04T06:08:07.776Z,8.66
2017-04-04T06:09:06.659Z,8.74
2017-04-04T06:10:05.193Z,8.78
2017-04-04T06:11:03.819Z,8.83
2017-04-04T06:12:02.331Z,8.90
2017-04-04T06:13:00.828Z,8.78
2017-04-04T06:13:59.372Z,8.71
2017-04-04T06:14:57.939Z,8.69
2017-04-04T06:15:56.446Z,8.63
2017-04-04T06:16:54.959Z,8.66
2017-04-04T06:17:53.490Z,8.72
2017-04-04T06:18:52.054Z,8.70
2017-04-04T06:19:50.619Z,8.79
2017-04-04T06:20:49.346Z,8.92
2017-04-04T06:21:47.934Z,8.95
2017-04-04T06:22:46.463Z,9.05
2017-04-04T06:23:45.119Z,9.12
2017-04-04T06:24:43.701Z,9.17
2017-04-04T06:25:42.224Z,9.24
2017-04-04T06:26:40.864Z,9.23
2017-04-04T06:27:39.378Z,9.26
2017-04-04T06:28:38.361Z,9.31
2017-04-04T06:29:37.003Z,9.34
2017-04-04T06:30:35.494Z,9.41
2017-04-04T06:31:34.080Z,9.39
2017-04-04T06:32:32.597Z,9.43
2017-04-04T06:33:31.108Z,9.30
2017-04-04T06:34:29.618Z,9.23
2017-04-04T06:35:28.166Z,9.15
2017-04-04T06:36:26.732Z,9.26
2017-04-04T06:37:25.274Z,9.18
2017-04-04T06:38:23.834Z,9.15
2017-04-04T06:39:22.336Z,9.19
2017-04-04T06:40:20.861Z,9.26
2017-04-04T06:41:19.415Z,9.44
2017-04-04T06:42:18.139Z,9.46
2017-04-04T06:43:16.722Z,9.51
2017-04-04T06:44:15.347Z,9.62
2017-04-04T06:45:13.939Z,9.72
2017-04-04T06:46:12.453Z,9.70
2017-04-04T06:47:10.967Z,9.74
2017-04-04T06:48:09.558Z,9.84
2017-04-04T06:49:08.107Z,9.91
2017-04-04T06:50:06.812Z,9.96
2017-04-04T06:51:05.406Z,9.95
2017-04-04T06:52:04.051Z,10.05
2017-04-04T06:53:02.706Z,10.06
2017-04-04T06:54:01.235Z,10.06
2017-04-04T06:54:59.770Z,10.08
2017-04-04T06:55:58.291Z,10.09
2017-04-04T06:56:56.818Z,10.12
2017-04-04T06:57:55.430Z,10.14
2017-04-04T06:58:53.923Z,10.17
2017-04-04T06:59:52.471Z,10.22
2017-04-04T07:00:50.991Z,10.23
2017-04-04T07:01:49.813Z,10.20
2017-04-04T07:02:49.167Z,10.28
2017-04-04T07:03:48.286Z,10.29
2017-04-04T07:04:47.168Z,10.32
2017-04-04T07:05:45.783Z,10.35
2017-04-04T07:06:44.271Z,10.35
2017-04-04T07:07:42.843Z,10.28
2017-04-04T07:08:41.366Z,10.20
2017-04-04T07:09:39.913Z,10.22
2017-04-04T07:10:38.435Z,10.28
2017-04-04T07:11:36.964Z,10.29
2017-04-04T07:12:35.476Z,10.27
2017-04-04T07:13:34.225Z,10.36
2017-04-04T07:14:32.800Z,10.39
2017-04-04T07:15:31.595Z,10.46
2017-04-04T07:16:30.166Z,10.44
2017-04-04T07:17:28.651Z,10.43
2017-04-04T07:18:27.231Z,10.46
2017-04-04T07:19:25.783Z,10.47
2017-04-04T07:20:24.918Z,10.47
2017-04-04T07:21:23.475Z,10.51
2017-04-04T07:22:22.043Z,10.51
2017-04-04T07:23:20.603Z,10.55
2017-04-04T07:24:19.363Z,10.62
2017-04-04T07:25:18.051Z,10.66
2017-04-04T07:26:16.691Z,10.62
2017-04-04T07:27:15.325Z,10.51
2017-04-04T07:28:13.911Z,10.51
2017-04-04T07:29:12.552Z,10.54
2017-04-04T07:30:11.139Z,10.60
2017-04-04T07:31:09.624Z,10.70
2017-04-04T07:32:08.183Z,10.63
2017-04-04T07:33:07.303Z,10.57
2017-04-04T07:34:05.873Z,10.70
2017-04-04T07:35:04.443Z,10.69
2017-04-04T07:36:02.947Z,10.71
2017-04-04T07:37:01.503Z,10.73
2017-04-04T07:38:00.041Z,10.75
2017-04-04T07:38:58.603Z,10.78
2017-04-04T07:39:57.219Z,10.76
2017-04-04T07:40:55.828Z,10.90
2017-04-04T07:41:54.359Z,10.94
2017-04-04T07:42:52.917Z,11.00
2017-04-04T07:43:51.466Z,11.29
2017-04-04T07:44:49.993Z,11.37
2017-04-04T07:45:48.519Z,11.27
2017-04-04T07:46:47.156Z,11.24
2017-04-04T07:47:45.687Z,11.23
2017-04-04T07:48:44.211Z,11.26
2017-04-04T07:49:42.811Z,11.24
2017-04-04T07:50:41.323Z,11.23
2017-04-04T07:51:39.831Z,11.26
2017-04-04T07:52:38.328Z,11.28
2017-04-04T07:53:36.967Z,11.30
2017-04-04T07:54:35.531Z,11.33
2017-04-04T07:55:34.109Z,11.34
2017-04-04T07:56:32.655Z,11.31
2017-04-04T07:57:31.261Z,11.32
2017-04-04T07:58:29.815Z,11.32
2017-04-04T07:59:28.342Z,11.35
2017-04-04T08:00:26.956Z,11.42
2017-04-04T08:01:25.527Z,11.48
2017-04-04T08:02:24.098Z,11.46
2017-04-04T08:03:22.791Z,11.49
2017-04-04T08:04:21.395Z,11.39
2017-04-04T08:05:19.947Z,11.38
2017-04-04T08:06:18.458Z,11.45
2017-04-04T08:07:17.004Z,11.54
2017-04-04T08:08:15.546Z,11.57
2017-04-04T08:09:14.138Z,11.58
2017-04-04T08:10:12.680Z,11.63
2017-04-04T08:11:11.200Z,11.66
2017-04-04T08:12:09.700Z,11.66
2017-04-04T08:13:08.199Z,11.68
2017-04-04T08:14:06.720Z,11.68
2017-04-04T08:15:05.316Z,11.62
2017-04-04T08:16:03.831Z,11.72
2017-04-04T08:17:02.368Z,11.73
2017-04-04T08:18:00.918Z,11.84
2017-04-04T08:18:59.431Z,11.79
2017-04-04T08:19:58.012Z,11.77
2017-04-04T08:20:56.523Z,11.78
2017-04-04T08:21:55.020Z,11.81
2017-04-04T08:22:53.543Z,11.82
2017-04-04T08:23:52.051Z,11.86
2017-04-04T08:24:50.619Z,11.92
2017-04-04T08:25:49.143Z,11.99
2017-04-04T08:26:47.783Z,12.06
2017-04-04T08:27:46.419Z,12.01
2017-04-04T08:28:45.072Z,12.05
2017-04-04T08:29:43.682Z,12.10
2017-04-04T08:30:42.327Z,12.18
2017-04-04T08:31:40.912Z,12.20
2017-04-04T08:32:39.447Z,12.26
2017-04-04T08:33:37.903Z,12.25
2017-04-04T08:34:36.431Z,12.03
2017-04-04T08:35:34.985Z,12.13
2017-04-04T08:36:33.483Z,12.04
2017-04-04T08:37:31.991Z,12.13
2017-04-04T08:38:30.531Z,12.16
2017-04-04T08:39:29.062Z,12.19
2017-04-04T08:40:27.659Z,12.26
2017-04-04T08:41:26.264Z,12.33
2017-04-04T08:42:24.859Z,12.30
2017-04-04T08:43:23.371Z,12.49
2017-04-04T08:44:21.896Z,12.53
2017-04-04T08:45:20.434Z,12.51
2017-04-04T08:46:18.939Z,12.53
2017-04-04T08:47:17.459Z,12.54
2017-04-04T08:48:16.100Z,12.55
2017-04-04T08:49:14.717Z,12.76
2017-04-04T08:50:13.324Z,12.69
2017-04-04T08:51:11.953Z,12.73
2017-04-04T08:52:10.579Z,12.72
2017-04-04T08:53:09.486Z,12.63
2017-04-04T08:54:08.071Z,12.67
2017-04-04T08:55:06.577Z,12.72
2017-04-04T08:56:05.196Z,12.69
2017-04-04T08:57:03.812Z,12.82
2017-04-04T08:58:02.415Z,12.82
2017-04-04T08:59:01.080Z,12.83
2017-04-04T08:59:59.758Z,12.88
2017-04-04T09:00:58.261Z,12.92
2017-04-04T09:01:56.819Z,12.95
2017-04-04T09:02:55.363Z,12.99
2017-04-04T09:03:53.911Z,13.02
2017-04-04T09:04:52.380Z,13.06
2017-04-04T09:05:50.891Z,13.07
2017-04-04T09:06:49.416Z,13.08
2017-04-04T09:07:47.994Z,13.29
2017-04-04T09:08:46.538Z,13.27
2017-04-04T09:09:45.068Z,13.32
2017-04-04T09:10:43.630Z,13.17
2017-04-04T09:11:42.111Z,13.17
2017-04-04T09:12:40.603Z,13.18
2017-04-04T09:13:39.102Z,13.18
2017-04-04T09:14:37.604Z,13.25
2017-04-04T09:15:36.155Z,13.40
2017-04-04T09:16:34.695Z,13.53
2017-04-04T09:17:33.205Z,13.49
2017-04-04T09:18:31.736Z,13.52
2017-04-04T09:19:30.239Z,13.38
2017-04-04T09:20:28.952Z,13.31
2017-04-04T09:21:27.475Z,13.29
2017-04-04T09:22:25.980Z,13.41
2017-04-04T09:23:24.487Z,13.36
2017-04-04T09:24:23.059Z,13.50
2017-04-04T09:25:21.695Z,13.57
2017-04-04T09:26:20.271Z,13.55
2017-04-04T09:27:18.852Z,13.76
2017-04-04T09:28:17.471Z,13.88
2017-04-04T09:29:16.232Z,13.95
2017-04-04T09:30:14.830Z,14.01
2017-04-04T09:31:13.410Z,14.08
2017-04-04T09:32:11.966Z,14.09
2017-04-04T09:33:10.451Z,13.97
2017-04-04T09:34:09.019Z,13.88
2017-04-04T09:35:07.593Z,13.79
2017-04-04T09:36:06.147Z,13.82
2017-04-04T09:37:04.712Z,14.05
2017-04-04T09:38:03.282Z,14.09
2017-04-04T09:39:01.800Z,13.98
2017-04-04T09:40:00.322Z,14.02
2017-04-04T09:40:58.860Z,14.02
2017-04-04T09:41:57.365Z,14.32
2017-04-04T09:42:55.850Z,14.25
2017-04-04T09:43:54.364Z,14.22
2017-04-04T09:44:52.879Z,14.19
2017-04-04T09:45:51.375Z,14.17
2017-04-04T09:46:49.992Z,14.26
2017-04-04T09:47:48.527Z,14.46
2017-04-04T09:48:47.019Z,14.42
2017-04-04T09:49:45.608Z,14.52
2017-04-04T09:50:44.198Z,14.52
2017-04-04T09:51:42.699Z,14.71
2017-04-04T09:52:41.241Z,14.88
2017-04-04T09:53:39.836Z,14.85
2017-04-04T09:54:38.343Z,14.69
2017-04-04T09:55:36.895Z,14.74
2017-04-04T09:56:35.410Z,14.65
2017-04-04T09:57:33.964Z,14.93
2017-04-04T09:58:32.580Z,14.92
2017-04-04T09:59:31.108Z,15.04
2017-04-04T10:00:29.657Z,14.96
2017-04-04T10:01:28.191Z,14.89
2017-04-04T10:02:26.741Z,14.91
2017-04-04T10:03:25.279Z,15.09
2017-04-04T10:04:23.787Z,15.24
2017-04-04T10:05:22.343Z,15.23
2017-04-04T10:06:20.839Z,15.19
2017-04-04T10:07:19.463Z,15.33
2017-04-04T10:08:18.015Z,15.30
2017-04-04T10:09:16.723Z,15.33
2017-04-04T10:10:15.332Z,15.28
2017-04-04T10:11:14.011Z,15.26
2017-04-04T10:12:12.684Z,15.46
2017-04-04T10:13:11.307Z,15.47
2017-04-04T10:14:10.231Z,15.66
2017-04-04T10:15:08.794Z,15.59
2017-04-04T10:16:07.334Z,15.57
2017-04-04T10:17:05.920Z,15.71
2017-04-04T10:18:04.582Z,15.79
2017-04-04T10:19:03.140Z,15.87
2017-04-04T10:20:01.711Z,15.75
2017-04-04T10:21:00.236Z,15.81
2017-04-04T10:21:58.823Z,15.93
2017-04-04T10:22:57.343Z,16.19
2017-04-04T10:23:55.864Z,16.21
2017-04-04T10:24:54.475Z,16.35
2017-04-04T10:25:53.141Z,16.41
2017-04-04T10:26:51.640Z,16.39
2017-04-04T10:27:50.147Z,16.45
2017-04-04T10:28:48.687Z,16.40
2017-04-04T10:29:47.307Z,16.08
2017-04-04T10:30:45.860Z,15.99
2017-04-04T10:31:44.451Z,15.90
2017-04-04T10:32:43.163Z,15.89
2017-04-04T10:33:41.770Z,15.96
2017-04-04T10:34:40.356Z,16.19
2017-04-04T10:35:38.862Z,16.54
2017-04-04T10:36:37.419Z,16.66
2017-04-04T10:37:35.928Z,16.84
2017-04-04T10:38:34.467Z,17.11
2017-04-04T10:39:33.004Z,17.27
2017-04-04T10:40:31.563Z,17.30
2017-04-04T10:41:30.078Z,17.23
2017-04-04T10:42:28.578Z,16.95
2017-04-04T10:43:27.195Z,17.09
2017-04-04T10:44:25.795Z,17.22
2017-04-04T10:45:24.453Z,17.47
2017-04-04T10:46:23.265Z,17.63
2017-04-04T10:47:21.825Z,17.73
2017-04-04T10:48:20.356Z,17.98
2017-04-04T10:49:18.972Z,18.38
2017-04-04T10:50:17.506Z,18.74
2017-04-04T10:51:16.034Z,18.92
2017-04-04T10:52:14.568Z,18.88
2017-04-04T10:53:13.091Z,18.58
2017-04-04T10:54:11.635Z,18.11
2017-04-04T10:55:10.195Z,17.98
2017-04-04T10:56:08.772Z,17.86
2017-04-04T10:57:07.359Z,18.12
2017-04-04T10:58:06.066Z,18.44
2017-04-04T10:59:04.670Z,18.74
2017-04-04T11:00:03.175Z,18.86
2017-04-04T11:01:01.819Z,18.75
2017-04-04T11:02:00.520Z,18.30
2017-04-04T11:02:59.076Z,17.85
2017-04-04T11:03:57.663Z,18.15
2017-04-04T11:04:56.189Z,18.44
2017-04-04T11:05:54.739Z,18.66
2017-04-04T11:06:53.408Z,18.54
2017-04-04T11:07:51.990Z,18.92
2017-04-04T11:08:50.708Z,19.18
2017-04-04T11:09:49.252Z,19.59
2017-04-04T11:10:47.878Z,19.90
2017-04-04T11:11:46.571Z,20.34
2017-04-04T11:12:45.191Z,20.90
2017-04-04T11:13:43.764Z,20.93
2017-04-04T11:14:42.295Z,20.72
2017-04-04T11:15:40.863Z,20.74
2017-04-04T11:16:39.399Z,20.84
2017-04-04T11:17:38.086Z,20.48
2017-04-04T11:18:36.673Z,20.63
2017-04-04T11:19:35.267Z,20.73
2017-04-04T11:20:33.896Z,21.02
2017-04-04T11:21:32.503Z,21.09
2017-04-04T11:22:31.058Z,20.93
2017-04-04T11:23:29.555Z,20.26
2017-04-04T11:24:28.079Z,20.02
2017-04-04T11:25:26.673Z,19.60
2017-04-04T11:26:25.255Z,18.86
2017-04-04T11:27:23.767Z,18.85
2017-04-04T11:28:22.307Z,19.16
2017-04-04T11:29:20.876Z,19.61
2017-04-04T11:30:19.444Z,20.12
2017-04-04T11:31:17.943Z,19.81
2017-04-04T11:32:16.467Z,20.23
2017-04-04T11:33:15.067Z,20.54
2017-04-04T11:34:13.687Z,21.18
2017-04-04T11:35:12.243Z,21.97
2017-04-04T11:36:10.839Z,22.14
2017-04-04T11:37:09.355Z,22.21
2017-04-04T11:38:07.900Z,22.47
2017-04-04T11:39:06.686Z,22.88
2017-04-04T11:40:05.272Z,22.86
2017-04-04T11:41:03.950Z,22.30
2017-04-04T11:42:02.564Z,21.77
2017-04-04T11:43:01.074Z,21.51
2017-04-04T11:43:59.595Z,20.53
2017-04-04T11:44:58.119Z,21.16
2017-04-04T11:45:56.727Z,20.74
2017-04-04T11:46:55.358Z,21.35
2017-04-04T11:47:54.038Z,21.65
2017-04-04T11:48:52.602Z,21.65
2017-04-04T11:49:51.248Z,21.12
2017-04-04T11:50:49.772Z,20.93
2017-04-04T11:51:48.263Z,20.32
2017-04-04T11:52:46.807Z,20.06
2017-04-04T11:53:45.329Z,19.64
2017-04-04T11:54:44.006Z,19.32
2017-04-04T11:55:42.671Z,19.12
2017-04-04T11:56:41.497Z,18.92
2017-04-04T11:57:40.103Z,18.97
2017-04-04T11:58:38.592Z,18.70
2017-04-04T11:59:37.106Z,18.82
2017-04-04T12:00:35.682Z,18.60
2017-04-04T12:01:34.183Z,18.95
2017-04-04T12:02:32.752Z,19.25
2017-04-04T12:03:31.298Z,19.69
2017-04-04T12:04:29.943Z,20.15
2017-04-04T12:05:28.451Z,21.17
2017-04-04T12:06:26.978Z,21.77
2017-04-04T12:07:25.471Z,22.09
2017-04-04T12:08:24.029Z,21.99
2017-04-04T12:09:22.549Z,22.37
2017-04-04T12:10:21.060Z,21.94
2017-04-04T12:11:19.592Z,21.69
2017-04-04T12:12:18.132Z,21.17
2017-04-04T12:13:16.836Z,20.51
2017-04-04T12:14:15.363Z,20.23
2017-04-04T12:15:13.936Z,20.30
2017-04-04T12:16:12.477Z,19.80
2017-04-04T12:17:11.015Z,19.74
2017-04-04T12:18:09.599Z,19.67
2017-04-04T12:19:08.143Z,19.66
2017-04-04T12:20:06.751Z,19.38
2017-04-04T12:21:05.281Z,19.53
2017-04-04T12:22:03.808Z,19.89
2017-04-04T12:23:02.347Z,20.49
2017-04-04T12:24:00.949Z,20.62
2017-04-04T12:24:59.563Z,20.41
2017-04-04T12:25:58.147Z,20.79
2017-04-04T12:26:56.631Z,20.80
2017-04-04T12:27:55.199Z,21.12
2017-04-04T12:28:53.713Z,21.64
2017-04-04T12:29:52.241Z,22.24
2017-04-04T12:30:50.746Z,22.92
2017-04-04T12:31:49.263Z,23.30
2017-04-04T12:32:47.808Z,22.75
2017-04-04T12:33:46.410Z,22.55
2017-04-04T12:34:45.079Z,22.55
2017-04-04T12:35:43.645Z,22.25
2017-04-04T12:36:42.191Z,22.00
2017-04-04T12:37:40.705Z,21.57
2017-04-04T12:38:39.316Z,20.93
2017-04-04T12:39:37.860Z,20.94
2017-04-04T12:40:36.387Z,20.96
2017-04-04T12:41:34.908Z,20.59
2017-04-04T12:42:33.402Z,20.24
2017-04-04T12:43:31.935Z,20.52
2017-04-04T12:44:30.536Z,20.51
2017-04-04T12:45:29.597Z,20.91